Time;durP1;ratioP1;P1;durP2;ratioP2;P2;SDS_P1;SDS_P2;PMS_P1;PMS_P2;Temp;Humidity;BMP_temperature;BMP_pressure;BME280_temperature;BME280_humidity;BME280_pressure;Samples;Min_cycle;Max_cycle;Signal;HPM_P1;HPM_P2
2023/12/06 00:01:48;;;;;;;70.05;33.28;;;0.40;99.90;;;;;;5094293;28;20103;-65
2023/12/06 00:04:13;;;;;;;74.93;36.15;;;0.40;99.90;;;;;;5094132;28;20039;-65
2023/12/06 00:06:39;;;;;;;76.38;34.97;;;0.40;99.90;;;;;;5094199;28;20028;-65
2023/12/06 00:09:05;;;;;;;71.25;35.78;;;0.40;99.90;;;;;;5094347;28;20028;-65
2023/12/06 00:11:30;;;;;;;75.40;34.22;;;0.40;99.90;;;;;;5075964;28;20020;-65
2023/12/06 00:13:56;;;;;;;70.78;33.97;;;0.50;99.90;;;;;;5094095;28;20020;-65
2023/12/06 00:16:22;;;;;;;68.65;34.03;;;0.50;99.90;;;;;;5075998;28;20020;-65
2023/12/06 00:18:49;;;;;;;72.32;35.25;;;0.40;99.90;;;;;;5076004;28;20024;-65
2023/12/06 00:21:15;;;;;;;69.75;33.97;;;0.30;99.90;;;;;;5076152;28;20024;-65
2023/12/06 00:23:41;;;;;;;76.38;35.08;;;0.40;99.90;;;;;;5075914;28;20042;-65
2023/12/06 00:26:07;;;;;;;77.43;35.80;;;0.40;99.90;;;;;;5075828;28;20115;-65
2023/12/06 00:28:33;;;;;;;70.45;35.00;;;0.40;99.90;;;;;;5075529;28;20020;-65
2023/12/06 00:30:58;;;;;;;76.15;35.35;;;0.40;99.90;;;;;;5075731;28;20020;-65
2023/12/06 00:33:24;;;;;;;73.70;35.17;;;0.30;99.90;;;;;;5094203;28;20174;-65
2023/12/06 00:35:50;;;;;;;71.53;33.20;;;0.30;99.90;;;;;;5075790;28;20119;-65
2023/12/06 00:38:16;;;;;;;78.13;36.25;;;0.30;99.90;;;;;;5075676;28;20024;-65
2023/12/06 00:40:44;;;;;;;74.57;34.28;;;0.30;99.90;;;;;;5093808;28;20377;-65
2023/12/06 00:43:10;;;;;;;72.90;34.80;;;0.30;99.90;;;;;;5093689;28;20039;-65
2023/12/06 00:45:35;;;;;;;72.60;36.85;;;0.40;99.90;;;;;;5075558;28;20028;-65
2023/12/06 00:48:01;;;;;;;73.53;34.63;;;0.40;99.90;;;;;;5094000;28;20067;-65
2023/12/06 00:50:26;;;;;;;73.38;33.55;;;0.40;99.90;;;;;;5094013;28;20051;-65
2023/12/06 00:52:52;;;;;;;77.38;34.45;;;0.40;99.90;;;;;;5093495;28;20040;-64
2023/12/06 00:55:18;;;;;;;75.57;36.20;;;0.40;99.90;;;;;;5095198;28;20025;-65
2023/12/06 00:57:43;;;;;;;78.38;36.88;;;0.40;99.90;;;;;;5097543;28;20024;-65
2023/12/06 01:00:10;;;;;;;73.82;35.97;;;0.40;99.90;;;;;;5079721;28;20020;-65
2023/12/06 01:02:37;;;;;;;75.57;37.00;;;0.40;99.90;;;;;;5097272;28;20040;-65
2023/12/06 01:05:04;;;;;;;73.78;35.33;;;0.40;99.90;;;;;;5079782;28;20032;-65
2023/12/06 01:07:30;;;;;;;71.75;36.22;;;0.40;99.90;;;;;;5097656;28;20032;-65
2023/12/06 01:09:56;;;;;;;76.18;38.55;;;0.40;99.90;;;;;;5097582;28;20077;-65
2023/12/06 01:12:21;;;;;;;78.82;34.85;;;0.40;99.90;;;;;;5097777;28;20031;-65
2023/12/06 01:14:47;;;;;;;74.90;35.00;;;0.40;99.90;;;;;;5079379;28;20081;-66
2023/12/06 01:17:13;;;;;;;76.00;36.67;;;0.30;99.90;;;;;;5097132;28;20162;-65
2023/12/06 01:19:38;;;;;;;68.85;34.60;;;0.30;99.90;;;;;;5097440;28;20090;-65
2023/12/06 01:22:04;;;;;;;76.80;37.38;;;0.30;99.90;;;;;;5097487;28;20031;-65
2023/12/06 01:24:30;;;;;;;81.82;38.47;;;0.40;99.90;;;;;;5096928;28;20040;-65
2023/12/06 01:26:56;;;;;;;78.80;35.53;;;0.30;99.90;;;;;;5097236;28;20032;-65
2023/12/06 01:29:22;;;;;;;79.13;35.85;;;0.30;99.90;;;;;;5079079;28;20020;-65
2023/12/06 01:31:47;;;;;;;73.40;36.38;;;0.30;99.90;;;;;;5096829;28;20112;-65
2023/12/06 01:34:13;;;;;;;81.63;38.35;;;0.30;99.90;;;;;;5078913;28;20093;-65
2023/12/06 01:36:39;;;;;;;74.18;36.47;;;0.30;99.90;;;;;;5097345;28;20035;-65
2023/12/06 01:39:04;;;;;;;81.13;36.97;;;0.20;99.90;;;;;;5079240;28;20020;-65
2023/12/06 01:41:30;;;;;;;77.78;35.72;;;0.20;99.90;;;;;;5097031;28;20016;-65
2023/12/06 01:43:56;;;;;;;79.80;36.90;;;0.20;99.90;;;;;;5078617;28;20055;-65
2023/12/06 01:46:21;;;;;;;84.65;37.05;;;0.20;99.90;;;;;;5078718;28;20024;-65
2023/12/06 01:48:48;;;;;;;76.85;36.80;;;0.20;99.90;;;;;;5078651;28;20031;-65
2023/12/06 01:51:17;;;;;;;78.43;37.40;;;0.40;99.90;;;;;;5096771;28;20028;-64
2023/12/06 01:53:42;;;;;;;82.72;38.08;;;0.20;99.90;;;;;;5078473;28;20035;-65
2023/12/06 01:56:10;;;;;;;80.18;36.55;;;0.20;99.90;;;;;;5096500;28;20036;-64
2023/12/06 01:58:37;;;;;;;76.65;35.78;;;0.20;99.90;;;;;;5078402;28;20032;-65
2023/12/06 02:01:05;;;;;;;84.03;37.47;;;0.20;99.90;;;;;;5096768;28;20086;-65
2023/12/06 02:03:32;;;;;;;86.03;36.63;;;0.20;99.90;;;;;;5078286;28;20036;-65
2023/12/06 02:06:00;;;;;;;82.38;36.72;;;0.20;99.90;;;;;;5096459;28;20028;-65
2023/12/06 02:08:26;;;;;;;81.30;37.63;;;0.20;99.90;;;;;;5095571;28;20038;-64
2023/12/06 02:10:51;;;;;;;81.95;35.97;;;0.20;99.90;;;;;;5078456;28;20024;-64
2023/12/06 02:13:17;;;;;;;78.55;37.65;;;0.20;99.90;;;;;;5096333;28;20479;-64
2023/12/06 02:15:43;;;;;;;87.35;39.42;;;0.20;99.90;;;;;;5096380;28;20489;-64
2023/12/06 02:18:09;;;;;;;81.22;38.50;;;0.20;99.90;;;;;;5095987;28;20028;-64
2023/12/06 02:20:36;;;;;;;80.55;38.17;;;0.20;99.90;;;;;;5096224;28;20078;-64
2023/12/06 02:23:04;;;;;;;85.22;38.42;;;0.30;99.90;;;;;;5096072;28;20041;-65
2023/12/06 02:25:30;;;;;;;86.03;38.35;;;0.30;99.90;;;;;;5096293;28;20024;-65
2023/12/06 02:27:57;;;;;;;81.75;38.05;;;0.30;99.90;;;;;;5095764;28;20032;-65
2023/12/06 02:30:23;;;;;;;80.07;35.25;;;0.30;99.90;;;;;;5077915;28;20051;-65
2023/12/06 02:32:49;;;;;;;82.70;38.53;;;0.30;99.90;;;;;;5077475;28;20502;-65
2023/12/06 02:35:20;;;;;;;85.82;38.42;;;0.30;99.90;;;;;;5095724;28;20481;-64
2023/12/06 02:37:49;;;;;;;81.35;37.50;;;0.30;99.90;;;;;;5078136;28;20146;-65
2023/12/06 02:40:16;;;;;;;82.60;37.88;;;0.30;99.90;;;;;;5096302;28;20020;-64
2023/12/06 02:42:42;;;;;;;85.25;39.28;;;0.30;99.90;;;;;;5096043;28;20051;-65
2023/12/06 02:45:08;;;;;;;86.10;38.42;;;0.30;99.90;;;;;;5098614;28;20028;-66
2023/12/06 02:47:33;;;;;;;83.95;39.20;;;0.30;99.90;;;;;;5098343;28;20024;-65
2023/12/06 02:49:59;;;;;;;86.63;37.85;;;0.30;99.90;;;;;;5097862;28;20035;-65
2023/12/06 02:52:25;;;;;;;77.57;36.08;;;0.40;99.90;;;;;;5095832;28;20428;-65
2023/12/06 02:54:50;;;;;;;82.68;37.00;;;0.50;99.90;;;;;;5095668;28;20372;-64
2023/12/06 02:57:16;;;;;;;73.88;35.38;;;0.30;99.90;;;;;;5077895;28;20438;-65
2023/12/06 02:59:42;;;;;;;83.95;37.60;;;0.30;99.90;;;;;;5095498;28;20094;-64
2023/12/06 03:02:07;;;;;;;82.32;36.85;;;0.30;99.90;;;;;;5095417;28;20457;-64
2023/12/06 03:04:33;;;;;;;86.22;40.03;;;0.40;99.90;;;;;;5077371;28;20036;-65
2023/12/06 03:06:58;;;;;;;81.55;37.63;;;0.30;99.90;;;;;;5095266;28;20110;-64
2023/12/06 03:09:24;;;;;;;75.57;36.88;;;0.30;99.90;;;;;;5095379;28;20047;-64
2023/12/06 03:11:50;;;;;;;77.15;37.65;;;0.30;99.90;;;;;;5095196;28;20035;-64
2023/12/06 03:14:15;;;;;;;80.20;38.33;;;0.40;99.90;;;;;;5095158;28;20039;-64
2023/12/06 03:16:41;;;;;;;83.20;37.22;;;0.30;99.90;;;;;;5094936;28;20070;-64
2023/12/06 03:19:06;;;;;;;79.47;36.88;;;0.30;99.90;;;;;;5095321;28;20035;-64
2023/12/06 03:21:32;;;;;;;79.15;37.92;;;0.30;99.90;;;;;;5076946;28;20020;-64
2023/12/06 03:23:58;;;;;;;83.20;37.38;;;0.30;99.90;;;;;;5094936;28;20077;-64
2023/12/06 03:26:23;;;;;;;79.72;37.08;;;0.40;99.90;;;;;;5094662;28;20047;-64
2023/12/06 03:28:49;;;;;;;76.38;36.38;;;0.30;99.90;;;;;;5094937;28;20047;-64
2023/12/06 03:31:14;;;;;;;73.97;34.70;;;0.30;99.90;;;;;;5076734;28;20057;-64
2023/12/06 03:33:40;;;;;;;75.25;36.05;;;0.30;99.90;;;;;;5076684;28;20120;-64
2023/12/06 03:36:10;;;;;;;79.53;35.45;;;0.30;99.90;;;;;;5076632;28;20028;-64
2023/12/06 03:38:36;;;;;;;75.18;35.65;;;0.30;99.90;;;;;;5094656;28;20028;-64
2023/12/06 03:41:01;;;;;;;79.20;36.47;;;0.30;99.90;;;;;;5076481;28;20024;-64
2023/12/06 03:43:27;;;;;;;78.00;36.03;;;0.30;99.90;;;;;;5076386;28;20036;-64
2023/12/06 03:45:53;;;;;;;79.78;36.10;;;0.30;99.90;;;;;;5094852;28;20038;-64
2023/12/06 03:48:19;;;;;;;75.25;35.65;;;0.30;99.90;;;;;;5094520;28;20024;-64
2023/12/06 03:50:44;;;;;;;79.45;37.33;;;0.30;99.90;;;;;;5076939;28;20073;-64
2023/12/06 03:53:10;;;;;;;77.53;35.03;;;0.30;99.90;;;;;;5094182;28;20031;-64
2023/12/06 03:55:36;;;;;;;76.75;33.88;;;0.30;99.90;;;;;;5094478;28;20024;-64
2023/12/06 03:58:01;;;;;;;79.47;37.50;;;0.30;99.90;;;;;;5094664;28;20031;-64
2023/12/06 04:00:27;;;;;;;83.88;38.60;;;0.30;99.90;;;;;;5075917;28;20031;-64
2023/12/06 04:02:53;;;;;;;81.65;35.97;;;0.40;99.90;;;;;;5094295;28;20036;-64
2023/12/06 04:05:19;;;;;;;79.68;37.85;;;0.40;99.90;;;;;;5094267;28;20099;-64
2023/12/06 04:07:45;;;;;;;87.80;36.00;;;0.30;99.90;;;;;;5094217;28;20059;-64
2023/12/06 04:10:10;;;;;;;82.88;36.60;;;0.30;99.90;;;;;;5076595;28;20462;-64
2023/12/06 04:12:36;;;;;;;79.80;35.50;;;0.30;99.90;;;;;;5094231;28;20031;-64
2023/12/06 04:15:03;;;;;;;82.18;36.70;;;0.30;99.90;;;;;;5093915;28;20111;-64
2023/12/06 04:17:29;;;;;;;80.57;37.15;;;0.30;99.90;;;;;;5094042;28;20024;-64
2023/12/06 04:19:55;;;;;;;79.95;37.90;;;0.40;99.90;;;;;;5075926;28;20031;-64
2023/12/06 04:22:20;;;;;;;89.78;39.38;;;0.30;99.90;;;;;;5093923;28;20400;-64
2023/12/06 04:24:46;;;;;;;80.20;37.88;;;0.30;99.90;;;;;;5076375;28;20032;-64
2023/12/06 04:27:11;;;;;;;84.47;38.35;;;0.40;99.90;;;;;;5075832;28;20020;-65
2023/12/06 04:29:37;;;;;;;85.95;39.13;;;0.30;99.90;;;;;;5093563;28;20031;-64
2023/12/06 04:32:03;;;;;;;85.65;37.17;;;0.30;99.90;;;;;;5093559;28;20044;-64
2023/12/06 04:34:33;;;;;;;80.80;36.58;;;0.30;99.90;;;;;;5093974;28;20039;-64
2023/12/06 04:36:58;;;;;;;81.30;37.03;;;0.30;99.90;;;;;;5093787;28;20120;-64
2023/12/06 04:39:24;;;;;;;95.28;38.45;;;0.40;99.90;;;;;;5093519;28;20099;-64
2023/12/06 04:41:50;;;;;;;86.20;37.92;;;0.40;99.90;;;;;;5093779;28;20031;-64
2023/12/06 04:44:15;;;;;;;89.00;37.42;;;0.40;99.90;;;;;;5093825;28;20388;-64
2023/12/06 04:46:41;;;;;;;91.45;36.13;;;0.40;99.90;;;;;;5093661;28;20084;-64
2023/12/06 04:49:07;;;;;;;77.22;35.65;;;0.40;99.90;;;;;;5094014;28;20493;-64
2023/12/06 04:51:32;;;;;;;82.00;36.53;;;0.40;99.90;;;;;;5075620;28;20461;-64
2023/12/06 04:53:58;;;;;;;77.43;36.03;;;0.40;99.90;;;;;;5093409;28;20028;-64
2023/12/06 04:56:23;;;;;;;82.03;39.25;;;0.40;99.90;;;;;;5093641;28;20028;-64
2023/12/06 04:58:49;;;;;;;77.68;35.33;;;0.40;99.90;;;;;;5075565;28;20027;-64
2023/12/06 05:01:15;;;;;;;81.28;35.63;;;0.40;99.90;;;;;;5093899;28;20035;-64
2023/12/06 05:03:41;;;;;;;79.22;35.60;;;0.40;99.90;;;;;;5075348;28;20028;-64
2023/12/06 05:06:07;;;;;;;78.18;36.35;;;0.40;99.90;;;;;;5093902;28;20043;-65
2023/12/06 05:08:32;;;;;;;78.05;36.25;;;0.30;99.90;;;;;;5093861;28;20024;-64
2023/12/06 05:10:58;;;;;;;78.97;37.25;;;0.40;99.90;;;;;;5093211;28;20482;-65
2023/12/06 05:13:23;;;;;;;83.38;39.47;;;0.30;99.90;;;;;;5094181;28;20028;-65
2023/12/06 05:15:49;;;;;;;78.10;36.28;;;0.40;99.90;;;;;;5075506;28;20111;-64
2023/12/06 05:18:15;;;;;;;80.50;37.80;;;0.40;99.90;;;;;;5093193;28;20032;-65
2023/12/06 05:20:40;;;;;;;75.88;35.75;;;0.40;99.90;;;;;;5075294;28;20384;-64
2023/12/06 05:23:06;;;;;;;78.55;35.45;;;0.40;99.90;;;;;;5075107;28;20038;-71
2023/12/06 05:25:32;;;;;;;82.38;38.15;;;0.40;99.90;;;;;;5093139;28;20024;-66
2023/12/06 05:27:58;;;;;;;77.30;36.90;;;0.50;99.90;;;;;;5075654;28;20028;-65
2023/12/06 05:30:24;;;;;;;81.07;38.33;;;0.40;99.90;;;;;;5074947;28;20127;-65
2023/12/06 05:32:50;;;;;;;88.40;37.92;;;0.40;99.90;;;;;;5093177;28;20048;-65
2023/12/06 05:35:16;;;;;;;88.85;40.08;;;0.40;99.90;;;;;;5075277;28;20055;-65
2023/12/06 05:37:41;;;;;;;83.78;38.80;;;0.40;99.90;;;;;;5093456;28;20457;-65
2023/12/06 05:40:07;;;;;;;86.68;37.85;;;0.30;99.90;;;;;;5093062;28;20024;-65
2023/12/06 05:42:33;;;;;;;80.20;37.13;;;0.40;99.90;;;;;;5094840;28;20024;-65
2023/12/06 05:44:59;;;;;;;81.03;37.20;;;0.40;99.90;;;;;;5096938;28;20457;-65
2023/12/06 05:47:25;;;;;;;74.47;36.00;;;0.40;99.90;;;;;;5097130;28;20047;-65
2023/12/06 05:49:51;;;;;;;83.15;37.67;;;0.30;99.90;;;;;;5078822;28;20024;-65
2023/12/06 05:52:17;;;;;;;78.60;36.65;;;0.30;99.90;;;;;;5097075;28;20532;-65
2023/12/06 05:54:42;;;;;;;78.50;36.38;;;0.40;99.90;;;;;;5098703;28;20051;-67
2023/12/06 05:57:09;;;;;;;72.53;36.15;;;0.30;99.90;;;;;;5080553;28;20346;-65
2023/12/06 05:59:34;;;;;;;75.70;35.13;;;0.40;99.90;;;;;;5079492;28;20077;-65
2023/12/06 06:02:00;;;;;;;75.95;35.92;;;0.40;99.90;;;;;;5078628;28;20024;-65
2023/12/06 06:04:26;;;;;;;76.88;36.08;;;0.40;99.90;;;;;;5096521;28;20500;-65
2023/12/06 06:06:52;;;;;;;83.82;39.35;;;0.30;99.90;;;;;;5096448;28;20033;-65
2023/12/06 06:09:17;;;;;;;80.13;37.80;;;0.40;99.90;;;;;;5096961;28;20051;-65
2023/12/06 06:11:43;;;;;;;80.50;35.95;;;0.40;99.90;;;;;;5078260;28;20024;-65
2023/12/06 06:14:09;;;;;;;83.65;36.45;;;0.30;99.90;;;;;;5096403;28;20539;-64
2023/12/06 06:16:35;;;;;;;79.97;35.58;;;0.40;99.90;;;;;;5096969;28;20456;-67
2023/12/06 06:19:00;;;;;;;79.88;35.65;;;0.40;99.90;;;;;;5096342;28;20024;-65
2023/12/06 06:21:26;;;;;;;77.82;36.53;;;0.40;99.90;;;;;;5078071;28;20028;-65
2023/12/06 06:23:52;;;;;;;76.65;35.63;;;0.40;99.90;;;;;;5096076;28;20077;-68
2023/12/06 06:26:17;;;;;;;80.78;37.17;;;0.40;99.90;;;;;;5078027;28;20024;-65
2023/12/06 06:28:43;;;;;;;79.03;36.53;;;0.40;99.90;;;;;;5096136;28;20032;-65
2023/12/06 06:31:09;;;;;;;76.85;36.20;;;0.40;99.90;;;;;;5096076;28;20103;-65
2023/12/06 06:33:35;;;;;;;80.18;37.25;;;0.50;99.90;;;;;;5096098;28;20048;-65
2023/12/06 06:36:01;;;;;;;76.50;38.05;;;0.40;99.90;;;;;;5096391;28;20024;-65
2023/12/06 06:38:26;;;;;;;85.05;39.28;;;0.40;99.90;;;;;;5096213;28;20103;-65
2023/12/06 06:40:52;;;;;;;86.18;38.33;;;0.40;99.90;;;;;;5095650;28;20056;-65
2023/12/06 06:43:18;;;;;;;82.63;37.78;;;0.40;99.90;;;;;;5077679;28;20032;-65
2023/12/06 06:45:43;;;;;;;78.68;36.50;;;0.40;99.90;;;;;;5095651;28;20380;-65
2023/12/06 06:48:09;;;;;;;79.63;38.05;;;0.50;99.90;;;;;;5095961;28;20035;-66
2023/12/06 06:50:36;;;;;;;76.72;37.20;;;0.50;99.90;;;;;;5095579;28;20097;-65
2023/12/06 06:53:01;;;;;;;80.63;35.80;;;0.50;99.90;;;;;;5077247;28;20028;-65
2023/12/06 06:55:27;;;;;;;82.78;37.28;;;0.50;99.90;;;;;;5096290;28;20384;-65
2023/12/06 06:57:53;;;;;;;80.72;36.88;;;0.50;99.90;;;;;;5095781;28;20032;-64
2023/12/06 07:00:20;;;;;;;84.88;37.50;;;0.50;99.90;;;;;;5077340;28;20028;-65
2023/12/06 07:02:47;;;;;;;87.57;36.50;;;0.40;99.90;;;;;;5095385;28;20028;-65
2023/12/06 07:05:13;;;;;;;89.30;39.95;;;0.50;99.90;;;;;;5077262;28;20028;-64
2023/12/06 07:07:40;;;;;;;84.55;39.22;;;0.50;99.90;;;;;;5077325;28;20035;-64
2023/12/06 07:10:06;;;;;;;86.00;38.38;;;0.50;99.90;;;;;;5095589;28;20028;-65
2023/12/06 07:12:32;;;;;;;97.10;39.72;;;0.50;99.90;;;;;;5077082;28;20028;-65
2023/12/06 07:14:59;;;;;;;96.55;40.78;;;0.50;99.90;;;;;;5094875;28;20085;-65
2023/12/06 07:17:25;;;;;;;83.55;35.53;;;0.50;99.90;;;;;;5076814;28;20115;-65
2023/12/06 07:19:51;;;;;;;81.45;37.85;;;0.50;99.90;;;;;;5077364;28;20358;-64
2023/12/06 07:22:17;;;;;;;96.85;38.25;;;0.50;99.90;;;;;;5077419;28;20030;-65
2023/12/06 07:24:42;;;;;;;85.70;37.70;;;0.50;99.90;;;;;;5076738;28;20389;-64
2023/12/06 07:27:09;;;;;;;89.68;39.08;;;0.60;99.90;;;;;;5095087;28;20099;-70
2023/12/06 07:29:36;;;;;;;87.13;37.88;;;0.60;99.90;;;;;;5094944;28;20028;-65
2023/12/06 07:32:02;;;;;;;85.32;37.95;;;0.80;99.90;;;;;;5094867;28;20048;-65
2023/12/06 07:34:28;;;;;;;84.00;35.90;;;0.60;99.90;;;;;;5076668;28;20536;-65
2023/12/06 07:36:53;;;;;;;87.63;39.35;;;0.70;99.90;;;;;;5076743;28;20024;-65
2023/12/06 07:39:20;;;;;;;84.55;38.10;;;0.60;99.90;;;;;;5076646;28;20492;-65
2023/12/06 07:41:46;;;;;;;79.00;36.20;;;0.60;99.90;;;;;;5094818;28;20130;-65
2023/12/06 07:44:12;;;;;;;83.18;38.17;;;0.70;99.90;;;;;;5094853;28;20032;-64
2023/12/06 07:46:38;;;;;;;82.97;37.38;;;0.70;99.90;;;;;;5076540;28;20032;-64
2023/12/06 07:49:04;;;;;;;87.65;38.00;;;0.70;99.90;;;;;;5094579;28;20022;-64
2023/12/06 07:51:29;;;;;;;89.35;39.88;;;0.70;99.90;;;;;;5095175;28;20365;-64
2023/12/06 07:53:56;;;;;;;79.30;36.75;;;0.70;99.90;;;;;;5094556;28;20028;-65
2023/12/06 07:56:23;;;;;;;88.32;36.40;;;0.70;99.90;;;;;;5076345;28;20028;-64
2023/12/06 07:58:51;;;;;;;82.97;39.70;;;0.80;99.90;;;;;;5094284;28;20059;-65
2023/12/06 08:01:16;;;;;;;79.95;36.03;;;0.80;99.90;;;;;;5076125;28;20118;-65
2023/12/06 08:03:44;;;;;;;82.43;38.42;;;0.80;99.90;;;;;;5076989;28;20067;-65
2023/12/06 08:06:10;;;;;;;78.45;38.05;;;0.80;99.90;;;;;;5093900;28;20085;-66
2023/12/06 08:08:35;;;;;;;88.07;37.50;;;0.90;99.90;;;;;;5094835;28;20401;-65
2023/12/06 08:11:01;;;;;;;91.93;39.00;;;0.90;99.90;;;;;;5076483;28;20419;-65
2023/12/06 08:13:27;;;;;;;83.78;38.20;;;0.80;99.90;;;;;;5095171;28;20053;-65
2023/12/06 08:15:53;;;;;;;85.45;37.17;;;0.80;99.90;;;;;;5098163;28;20049;-65
2023/12/06 08:18:18;;;;;;;78.50;37.60;;;0.90;99.90;;;;;;5080451;28;20024;-65
2023/12/06 08:20:50;;;;;;;86.85;37.85;;;0.90;99.90;;;;;;5094426;28;20161;-65
2023/12/06 08:23:16;;;;;;;84.43;39.10;;;0.90;99.90;;;;;;5076349;28;20036;-65
2023/12/06 08:25:42;;;;;;;87.95;38.72;;;0.90;99.90;;;;;;5094317;28;20062;-65
2023/12/06 08:28:08;;;;;;;81.85;38.20;;;0.90;99.90;;;;;;5094435;28;20081;-65
2023/12/06 08:30:34;;;;;;;82.00;38.67;;;0.90;99.90;;;;;;5093998;28;20016;-65
2023/12/06 08:32:59;;;;;;;82.68;37.58;;;0.90;99.90;;;;;;5093893;28;20059;-65
2023/12/06 08:35:26;;;;;;;86.47;37.55;;;0.90;99.90;;;;;;5093826;28;20052;-65
2023/12/06 08:37:52;;;;;;;87.82;38.45;;;1.00;99.90;;;;;;5093883;28;20457;-65
2023/12/06 08:40:17;;;;;;;80.95;37.20;;;1.00;99.90;;;;;;5094312;28;20024;-65
2023/12/06 08:42:43;;;;;;;80.55;37.90;;;1.00;99.90;;;;;;5094049;28;20027;-65
2023/12/06 08:45:09;;;;;;;80.00;38.50;;;1.00;99.90;;;;;;5094224;28;20504;-65
2023/12/06 08:47:34;;;;;;;86.38;37.45;;;1.10;99.90;;;;;;5093625;28;20024;-65
2023/12/06 08:50:00;;;;;;;74.32;35.97;;;1.10;99.90;;;;;;5075987;28;20020;-64
2023/12/06 08:52:26;;;;;;;87.43;39.75;;;1.20;99.90;;;;;;5093417;28;20111;-64
2023/12/06 08:54:52;;;;;;;82.10;38.42;;;1.20;99.90;;;;;;5093786;28;20067;-64
2023/12/06 08:57:17;;;;;;;99.07;40.53;;;1.30;99.90;;;;;;5075781;28;20028;-65
2023/12/06 08:59:43;;;;;;;87.93;39.85;;;1.30;99.90;;;;;;5075668;28;20028;-64
2023/12/06 09:02:09;;;;;;;92.07;40.40;;;1.40;99.90;;;;;;5076111;28;20029;-64
2023/12/06 09:04:34;;;;;;;80.38;37.70;;;1.40;99.90;;;;;;5075409;28;20484;-64
2023/12/06 09:07:00;;;;;;;78.55;38.47;;;1.50;99.90;;;;;;5076064;28;20039;-65
2023/12/06 09:09:25;;;;;;;85.43;38.67;;;1.60;99.90;;;;;;5075524;28;20028;-65
2023/12/06 09:11:51;;;;;;;78.88;37.53;;;1.60;99.90;;;;;;5075539;28;20115;-64
2023/12/06 09:14:17;;;;;;;77.13;36.92;;;1.70;99.90;;;;;;5093383;28;20028;-64
2023/12/06 09:16:43;;;;;;;73.93;35.47;;;1.80;99.90;;;;;;5077082;28;20114;-64
2023/12/06 09:19:08;;;;;;;73.65;37.38;;;1.80;99.90;;;;;;5097996;28;20036;-64
2023/12/06 09:21:43;;;;;;;77.22;38.45;;;1.90;99.90;;;;;;5098012;28;20035;-64
2023/12/06 09:24:11;;;;;;;84.03;39.05;;;1.90;99.90;;;;;;5079437;28;20044;-64
2023/12/06 09:26:41;;;;;;;82.55;37.95;;;2.00;99.90;;;;;;5097305;28;20032;-64
2023/12/06 09:29:08;;;;;;;68.90;35.08;;;2.00;99.90;;;;;;5079070;28;20034;-65
2023/12/06 09:31:34;;;;;;;76.90;36.03;;;2.00;99.90;;;;;;5079559;28;20019;-64
2023/12/06 09:34:01;;;;;;;76.30;36.22;;;2.00;99.90;;;;;;5079322;28;20086;-64
2023/12/06 09:36:27;;;;;;;75.00;38.13;;;2.10;99.90;;;;;;5097485;28;20115;-64
2023/12/06 09:38:57;;;;;;;73.68;36.90;;;2.10;99.90;;;;;;5097347;28;20027;-64
2023/12/06 09:41:30;;;;;;;75.22;36.50;;;2.10;99.90;;;;;;5097023;28;20024;-64
2023/12/06 09:43:57;;;;;;;79.10;37.30;;;2.10;99.90;;;;;;5096951;28;20058;-65
2023/12/06 09:46:23;;;;;;;81.13;38.30;;;2.10;99.90;;;;;;5079626;28;20078;-65
2023/12/06 09:48:49;;;;;;;76.25;37.30;;;2.10;99.90;;;;;;5079672;28;20518;-65
2023/12/06 09:51:15;;;;;;;72.75;36.85;;;2.10;99.90;;;;;;5097555;28;20028;-66
2023/12/06 09:53:41;;;;;;;76.18;37.60;;;2.20;99.90;;;;;;5097259;28;20112;-65
2023/12/06 09:56:09;;;;;;;83.97;38.30;;;2.20;99.90;;;;;;5078563;28;20115;-65
2023/12/06 09:58:35;;;;;;;76.80;36.80;;;2.20;99.90;;;;;;5078536;28;20111;-65
2023/12/06 10:01:01;;;;;;;74.85;36.28;;;2.10;99.90;;;;;;5096620;28;20050;-65
2023/12/06 10:03:27;;;;;;;75.45;35.40;;;2.10;99.90;;;;;;5096537;28;20461;-65
2023/12/06 10:06:03;;;;;;;77.85;37.47;;;2.20;99.90;;;;;;5096674;28;20032;-65
2023/12/06 10:08:33;;;;;;;74.00;35.85;;;2.30;99.90;;;;;;5078875;28;20115;-65
2023/12/06 10:11:09;;;;;;;81.60;35.47;;;2.40;99.90;;;;;;5096558;28;20024;-65
2023/12/06 10:13:37;;;;;;;84.30;36.90;;;2.50;99.90;;;;;;5096495;28;20024;-65
2023/12/06 10:16:15;;;;;;;79.53;36.25;;;2.60;99.90;;;;;;5096367;28;20035;-64
2023/12/06 10:18:42;;;;;;;81.88;36.03;;;2.60;99.90;;;;;;5096488;28;20024;-65
2023/12/06 10:21:08;;;;;;;82.90;37.63;;;2.70;99.90;;;;;;5096009;28;20493;-65
2023/12/06 10:23:35;;;;;;;70.18;35.10;;;2.70;99.90;;;;;;5078597;28;20077;-65
2023/12/06 10:26:01;;;;;;;70.63;34.92;;;2.70;99.90;;;;;;5096220;28;20032;-65
2023/12/06 10:28:26;;;;;;;74.72;34.97;;;2.70;99.90;;;;;;5095444;28;20551;-68
2023/12/06 10:31:03;;;;;;;74.97;35.67;;;2.70;99.90;;;;;;5077997;28;20051;-66
2023/12/06 10:33:32;;;;;;;69.30;34.03;;;2.80;99.90;;;;;;5077542;28;20440;-65
2023/12/06 10:36:04;;;;;;;64.10;33.42;;;2.80;99.90;;;;;;5095719;28;20031;-65
2023/12/06 10:38:30;;;;;;;74.55;33.35;;;2.80;99.90;;;;;;5077934;28;20066;-65
2023/12/06 10:40:58;;;;;;;75.55;34.97;;;2.80;99.90;;;;;;5096333;28;20106;-66
2023/12/06 10:43:26;;;;;;;62.88;32.70;;;2.80;99.90;;;;;;5077675;28;20028;-66
2023/12/06 10:45:53;;;;;;;64.13;31.58;;;2.80;99.90;;;;;;5096063;28;20122;-65
2023/12/06 10:48:20;;;;;;;66.40;32.08;;;2.80;99.90;;;;;;5095772;28;20078;-65
2023/12/06 10:50:45;;;;;;;74.15;34.20;;;2.80;99.90;;;;;;5077585;28;20030;-65
2023/12/06 10:53:16;;;;;;;74.03;33.78;;;2.90;99.90;;;;;;5078111;28;20481;-65
2023/12/06 10:55:42;;;;;;;74.10;35.38;;;2.90;99.90;;;;;;5077470;28;20032;-65
2023/12/06 10:58:09;;;;;;;71.47;34.88;;;3.00;99.90;;;;;;5095347;28;20027;-65
2023/12/06 11:00:35;;;;;;;68.80;33.10;;;3.10;99.90;;;;;;5095558;28;20024;-65
2023/12/06 11:03:01;;;;;;;65.53;32.97;;;3.10;99.90;;;;;;5095499;28;20028;-65
2023/12/06 11:05:32;;;;;;;70.15;34.38;;;3.10;99.90;;;;;;5095317;28;20036;-65
2023/12/06 11:08:22;;;;;;;67.07;34.10;;;3.20;99.90;;;;;;5095522;28;20064;-65
2023/12/06 11:11:02;;;;;;;77.07;35.72;;;3.20;99.90;;;;;;5095580;28;20031;-64
2023/12/06 11:13:53;;;;;;;74.22;35.10;;;3.30;99.90;;;;;;5077233;28;20381;-64
2023/12/06 11:16:42;;;;;;;75.30;34.53;;;3.30;99.90;;;;;;5077030;28;20020;-64
2023/12/06 11:19:07;;;;;;;;;;;3.40;99.90;;;;;;5095568;28;20070;-64
2023/12/06 11:21:33;;;;;;;80.07;35.28;;;3.40;99.90;;;;;;5077271;28;20315;-64
2023/12/06 11:24:00;;;;;;;72.57;34.90;;;3.50;99.90;;;;;;5094981;28;20476;-64
2023/12/06 11:26:26;;;;;;;69.50;34.95;;;3.50;99.90;;;;;;5095036;28;20020;-64
2023/12/06 11:28:54;;;;;;;60.65;33.05;;;3.50;99.90;;;;;;5095030;28;20111;-64
2023/12/06 11:31:20;;;;;;;65.07;32.17;;;3.60;99.90;;;;;;5094975;28;20024;-64
2023/12/06 11:33:56;;;;;;;68.13;32.85;;;3.50;99.90;;;;;;5094463;28;20056;-64
2023/12/06 11:36:24;;;;;;;66.63;33.97;;;3.50;99.90;;;;;;5076645;28;20170;-65
2023/12/06 11:38:49;;;;;;;70.10;33.47;;;3.70;99.90;;;;;;5094687;28;20124;-65
2023/12/06 11:41:16;;;;;;;66.53;33.22;;;3.80;99.90;;;;;;5094261;28;20485;-64
2023/12/06 11:43:50;;;;;;;74.75;35.08;;;4.00;99.90;;;;;;5094849;28;20495;-64
2023/12/06 11:46:17;;;;;;;67.60;33.75;;;4.40;99.90;;;;;;5076512;28;20465;-64
2023/12/06 11:48:45;;;;;;;72.25;34.92;;;4.80;99.90;;;;;;5076599;28;20102;-65
2023/12/06 11:51:25;;;;;;;72.43;33.88;;;5.20;99.90;;;;;;5094285;28;20030;-65
2023/12/06 11:53:52;;;;;;;63.92;32.10;;;5.50;99.90;;;;;;5094608;28;20401;-64
2023/12/06 11:56:22;;;;;;;62.03;32.05;;;5.70;99.90;;;;;;5094183;28;20027;-65
2023/12/06 11:58:49;;;;;;;58.30;28.83;;;5.80;99.90;;;;;;5076306;28;20024;-64
2023/12/06 12:01:15;;;;;;;58.47;31.00;;;6.10;99.90;;;;;;5094411;28;20111;-65
2023/12/06 12:03:42;;;;;;;59.30;31.77;;;6.50;99.90;;;;;;5076021;28;20131;-64
2023/12/06 12:06:08;;;;;;;59.58;31.67;;;6.80;99.90;;;;;;5094339;28;20090;-66
2023/12/06 12:08:34;;;;;;;59.03;29.95;;;7.00;99.90;;;;;;5076491;28;20351;-66
2023/12/06 12:11:00;;;;;;;56.00;29.40;;;7.10;99.90;;;;;;5094254;28;20089;-67
2023/12/06 12:13:26;;;;;;;62.33;29.88;;;6.90;99.90;;;;;;5094495;28;20173;-65
2023/12/06 12:16:03;;;;;;;56.65;29.10;;;6.70;99.90;;;;;;5076081;28;20362;-66
2023/12/06 12:18:29;;;;;;;62.63;29.77;;;6.50;99.90;;;;;;5076353;28;20028;-65
2023/12/06 12:20:58;;;;;;;55.45;28.73;;;6.40;99.90;;;;;;5075921;28;20105;-66
2023/12/06 12:23:24;;;;;;;50.00;27.30;;;6.40;99.90;;;;;;5075831;28;20032;-65
2023/12/06 12:25:51;;;;;;;58.05;29.40;;;6.70;99.90;;;;;;5094117;28;20043;-65
2023/12/06 12:28:21;;;;;;;57.78;29.73;;;6.80;99.90;;;;;;5075770;28;20024;-65
2023/12/06 12:30:58;;;;;;;60.53;29.65;;;6.60;99.90;;;;;;5094419;28;20031;-65
2023/12/06 12:33:24;;;;;;;64.28;30.85;;;6.20;99.90;;;;;;5093636;28;20048;-65
2023/12/06 12:35:51;;;;;;;58.50;30.25;;;5.80;99.90;;;;;;5076191;28;20028;-65